sensor_id;sensor_type;location;lat;lon;timestamp;pressure;altitude;pressure_sealevel;temperature;humidity
64158;BME280;50449;51.528;5.076;2022-12-18T00:00:41;102704.50;;;0.81;63.74
64158;BME280;50449;51.528;5.076;2022-12-18T00:03:07;102700.97;;;0.80;63.93
64158;BME280;50449;51.528;5.076;2022-12-18T00:05:32;102693.97;;;0.79;63.86
64158;BME280;50449;51.528;5.076;2022-12-18T00:07:57;102689.66;;;0.78;63.84
64158;BME280;50449;51.528;5.076;2022-12-18T00:10:23;102696.75;;;0.78;63.88
64158;BME280;50449;51.528;5.076;2022-12-18T00:12:48;102690.59;;;0.77;63.63
64158;BME280;50449;51.528;5.076;2022-12-18T00:15:13;102693.25;;;0.77;63.87
64158;BME280;50449;51.528;5.076;2022-12-18T00:17:39;102696.75;;;0.78;63.78
64158;BME280;50449;51.528;5.076;2022-12-18T00:20:04;102682.78;;;0.76;63.78
64158;BME280;50449;51.528;5.076;2022-12-18T00:22:29;102686.28;;;0.76;63.81
64158;BME280;50449;51.528;5.076;2022-12-18T00:24:55;102687.22;;;0.75;63.79
64158;BME280;50449;51.528;5.076;2022-12-18T00:27:20;102676.72;;;0.74;63.66
64158;BME280;50449;51.528;5.076;2022-12-18T00:29:45;102676.84;;;0.72;63.57
64158;BME280;50449;51.528;5.076;2022-12-18T00:32:10;102673.34;;;0.72;63.64
64158;BME280;50449;51.528;5.076;2022-12-18T00:34:36;102672.53;;;0.71;63.40
64158;BME280;50449;51.528;5.076;2022-12-18T00:37:01;102664.53;;;0.71;63.41
64158;BME280;50449;51.528;5.076;2022-12-18T00:39:26;102661.16;;;0.69;63.75
64158;BME280;50449;51.528;5.076;2022-12-18T00:41:51;102670.13;;;0.68;63.66
64158;BME280;50449;51.528;5.076;2022-12-18T00:44:35;102665.75;;;0.67;63.71
64158;BME280;50449;51.528;5.076;2022-12-18T00:47:00;102670.25;;;0.67;63.65
64158;BME280;50449;51.528;5.076;2022-12-18T00:49:26;102662.25;;;0.67;63.55
64158;BME280;50449;51.528;5.076;2022-12-18T00:51:51;102665.91;;;0.66;63.37
64158;BME280;50449;51.528;5.076;2022-12-18T00:54:17;102655.38;;;0.64;63.42
64158;BME280;50449;51.528;5.076;2022-12-18T00:56:42;102662.53;;;0.63;63.63
64158;BME280;50449;51.528;5.076;2022-12-18T00:59:07;102662.53;;;0.63;63.62
64158;BME280;50449;51.528;5.076;2022-12-18T01:01:33;102664.47;;;0.61;63.60
64158;BME280;50449;51.528;5.076;2022-12-18T01:03:59;102665.31;;;0.62;63.61
64158;BME280;50449;51.528;5.076;2022-12-18T01:06:24;102666.41;;;0.59;63.55
64158;BME280;50449;51.528;5.076;2022-12-18T01:08:50;102675.38;;;0.58;63.62
64158;BME280;50449;51.528;5.076;2022-12-18T01:11:16;102691.34;;;0.58;63.49
64158;BME280;50449;51.528;5.076;2022-12-18T01:13:42;102687.13;;;0.56;63.31
64158;BME280;50449;51.528;5.076;2022-12-18T01:16:08;102689.63;;;0.57;63.50
64158;BME280;50449;51.528;5.076;2022-12-18T01:18:33;102686.25;;;0.55;63.43
64158;BME280;50449;51.528;5.076;2022-12-18T01:20:59;102677.44;;;0.55;63.39
64158;BME280;50449;51.528;5.076;2022-12-18T01:23:24;102684.69;;;0.53;63.43
64158;BME280;50449;51.528;5.076;2022-12-18T01:25:49;102681.19;;;0.52;63.43
64158;BME280;50449;51.528;5.076;2022-12-18T01:28:14;102674.19;;;0.51;63.04
64158;BME280;50449;51.528;5.076;2022-12-18T01:30:40;102676.03;;;0.51;63.36
64158;BME280;50449;51.528;5.076;2022-12-18T01:33:05;102680.47;;;0.50;63.12
64158;BME280;50449;51.528;5.076;2022-12-18T01:35:30;102674.47;;;0.48;63.28
64158;BME280;50449;51.528;5.076;2022-12-18T01:37:56;102674.59;;;0.47;63.00
64158;BME280;50449;51.528;5.076;2022-12-18T01:40:21;102677.34;;;0.45;63.01
64158;BME280;50449;51.528;5.076;2022-12-18T01:42:53;102673.88;;;0.45;62.92
64158;BME280;50449;51.528;5.076;2022-12-18T01:50:10;102665.16;;;0.42;63.09
64158;BME280;50449;51.528;5.076;2022-12-18T01:52:36;102667.97;;;0.41;63.13
64158;BME280;50449;51.528;5.076;2022-12-18T01:55:06;102667.13;;;0.40;63.11
64158;BME280;50449;51.528;5.076;2022-12-18T01:57:31;102665.44;;;0.39;62.93
64158;BME280;50449;51.528;5.076;2022-12-18T01:59:59;102669.06;;;0.38;62.68
64158;BME280;50449;51.528;5.076;2022-12-18T02:02:24;102666.53;;;0.37;62.80
64158;BME280;50449;51.528;5.076;2022-12-18T02:04:51;102667.50;;;0.36;62.84
64158;BME280;50449;51.528;5.076;2022-12-18T02:07:23;102668.47;;;0.35;62.86
64158;BME280;50449;51.528;5.076;2022-12-18T02:09:53;102669.44;;;0.34;62.95
64158;BME280;50449;51.528;5.076;2022-12-18T02:12:27;102674.75;;;0.34;62.78
64158;BME280;50449;51.528;5.076;2022-12-18T02:14:59;102675.75;;;0.33;62.86
64158;BME280;50449;51.528;5.076;2022-12-18T02:17:28;102675.88;;;0.31;62.71
64158;BME280;50449;51.528;5.076;2022-12-18T02:27:51;102658.63;;;0.26;62.82
64158;BME280;50449;51.528;5.076;2022-12-18T02:30:18;102650.66;;;0.26;62.70
64158;BME280;50449;51.528;5.076;2022-12-18T02:32:46;102643.63;;;0.25;62.34
64158;BME280;50449;51.528;5.076;2022-12-18T02:35:15;102649.09;;;0.23;62.72
64158;BME280;50449;51.528;5.076;2022-12-18T02:37:42;102649.94;;;0.24;62.66
64158;BME280;50449;51.528;5.076;2022-12-18T02:40:08;102648.38;;;0.21;62.79
64158;BME280;50449;51.528;5.076;2022-12-18T02:42:34;102637.84;;;0.19;62.75
64158;BME280;50449;51.528;5.076;2022-12-18T02:44:59;102633.53;;;0.18;62.64
64158;BME280;50449;51.528;5.076;2022-12-18T02:47:27;102638.00;;;0.18;62.64
64158;BME280;50449;51.528;5.076;2022-12-18T02:52:24;102622.16;;;0.16;62.56
64158;BME280;50449;51.528;5.076;2022-12-18T02:55:08;102617.84;;;0.15;62.32
64158;BME280;50449;51.528;5.076;2022-12-18T02:57:56;102628.59;;;0.14;62.46
64158;BME280;50449;51.528;5.076;2022-12-18T03:00:24;102636.56;;;0.14;62.27
64158;BME280;50449;51.528;5.076;2022-12-18T03:02:56;102632.34;;;0.11;62.42
64158;BME280;50449;51.528;5.076;2022-12-18T03:05:40;102620.88;;;0.11;62.44
64158;BME280;50449;51.528;5.076;2022-12-18T03:08:15;102619.31;;;0.08;62.47
64158;BME280;50449;51.528;5.076;2022-12-18T03:10:45;102605.19;;;0.08;62.43
64158;BME280;50449;51.528;5.076;2022-12-18T03:13:31;102604.47;;;0.06;62.36
64158;BME280;50449;51.528;5.076;2022-12-18T03:15:58;102605.44;;;0.05;62.42
64158;BME280;50449;51.528;5.076;2022-12-18T03:18:26;102612.56;;;0.04;62.21
64158;BME280;50449;51.528;5.076;2022-12-18T03:20:54;102616.19;;;0.03;62.12
64158;BME280;50449;51.528;5.076;2022-12-18T03:23:21;102615.38;;;0.03;62.22
64158;BME280;50449;51.528;5.076;2022-12-18T03:25:48;102623.34;;;0.03;62.17
64158;BME280;50449;51.528;5.076;2022-12-18T03:28:18;102633.25;;;0.01;62.27
64158;BME280;50449;51.528;5.076;2022-12-18T03:30:45;102628.88;;;-0.01;62.24
64158;BME280;50449;51.528;5.076;2022-12-18T03:33:19;102631.69;;;-0.02;62.04
64158;BME280;50449;51.528;5.076;2022-12-18T03:35:48;102623.81;;;-0.04;62.09
64158;BME280;50449;51.528;5.076;2022-12-18T03:38:14;102627.47;;;-0.05;62.10
64158;BME280;50449;51.528;5.076;2022-12-18T03:43:09;102609.97;;;-0.07;61.91
64158;BME280;50449;51.528;5.076;2022-12-18T03:45:37;102602.00;;;-0.07;62.00
64158;BME280;50449;51.528;5.076;2022-12-18T03:48:46;102596.78;;;-0.09;62.21
64158;BME280;50449;51.528;5.076;2022-12-18T03:50:59;102591.59;;;-0.10;61.97
64158;BME280;50449;51.528;5.076;2022-12-18T03:53:35;102593.41;;;-0.11;62.02
64158;BME280;50449;51.528;5.076;2022-12-18T03:56:02;102590.91;;;-0.12;61.89
64158;BME280;50449;51.528;5.076;2022-12-18T03:58:28;102592.84;;;-0.14;61.88
64158;BME280;50449;51.528;5.076;2022-12-18T04:00:56;102582.22;;;-0.14;61.92
64158;BME280;50449;51.528;5.076;2022-12-18T04:03:23;102577.03;;;-0.16;61.68
64158;BME280;50449;51.528;5.076;2022-12-18T04:05:50;102569.19;;;-0.17;62.04
64158;BME280;50449;51.528;5.076;2022-12-18T04:08:16;102561.34;;;-0.19;61.78
64158;BME280;50449;51.528;5.076;2022-12-18T04:10:41;102563.16;;;-0.19;61.76
64158;BME280;50449;51.528;5.076;2022-12-18T04:13:06;102565.94;;;-0.21;61.64
64158;BME280;50449;51.528;5.076;2022-12-18T04:15:33;102563.44;;;-0.23;62.01
64158;BME280;50449;51.528;5.076;2022-12-18T04:17:59;102563.44;;;-0.23;61.76
64158;BME280;50449;51.528;5.076;2022-12-18T04:20:24;102569.69;;;-0.24;61.71
64158;BME280;50449;51.528;5.076;2022-12-18T04:22:49;102572.50;;;-0.25;62.03
64158;BME280;50449;51.528;5.076;2022-12-18T04:25:15;102581.41;;;-0.26;61.75
64158;BME280;50449;51.528;5.076;2022-12-18T04:27:40;102582.38;;;-0.27;61.84
64158;BME280;50449;51.528;5.076;2022-12-18T04:30:05;102591.31;;;-0.28;61.94
64158;BME280;50449;51.528;5.076;2022-12-18T04:37:41;102599.53;;;-0.31;61.79
64158;BME280;50449;51.528;5.076;2022-12-18T04:40:06;102596.88;;;-0.31;61.65
64158;BME280;50449;51.528;5.076;2022-12-18T04:42:32;102602.31;;;-0.33;61.59
64158;BME280;50449;51.528;5.076;2022-12-18T04:44:57;102591.81;;;-0.34;61.55
64158;BME280;50449;51.528;5.076;2022-12-18T04:47:22;102602.44;;;-0.34;61.49
64158;BME280;50449;51.528;5.076;2022-12-18T04:49:47;102599.06;;;-0.36;61.76
64158;BME280;50449;51.528;5.076;2022-12-18T04:52:13;102592.91;;;-0.37;61.49
64158;BME280;50449;51.528;5.076;2022-12-18T04:54:38;102594.00;;;-0.39;61.49
64158;BME280;50449;51.528;5.076;2022-12-18T04:57:03;102594.13;;;-0.41;61.61
64158;BME280;50449;51.528;5.076;2022-12-18T04:59:28;102585.22;;;-0.40;61.43
64158;BME280;50449;51.528;5.076;2022-12-18T05:01:54;102585.31;;;-0.41;61.53
64158;BME280;50449;51.528;5.076;2022-12-18T05:04:19;102578.34;;;-0.42;61.49
64158;BME280;50449;51.528;5.076;2022-12-18T05:06:44;102586.41;;;-0.44;61.55
64158;BME280;50449;51.528;5.076;2022-12-18T05:09:10;102600.78;;;-0.47;61.36
64158;BME280;50449;51.528;5.076;2022-12-18T05:11:35;102605.25;;;-0.47;61.39
64158;BME280;50449;51.528;5.076;2022-12-18T05:14:00;102599.22;;;-0.49;61.41
64158;BME280;50449;51.528;5.076;2022-12-18T05:16:25;102607.19;;;-0.49;61.45
64158;BME280;50449;51.528;5.076;2022-12-18T05:18:51;102603.69;;;-0.50;61.54
64158;BME280;50449;51.528;5.076;2022-12-18T05:21:16;102596.81;;;-0.52;61.56
64158;BME280;50449;51.528;5.076;2022-12-18T05:23:41;102600.41;;;-0.53;61.49
64158;BME280;50449;51.528;5.076;2022-12-18T05:26:14;102594.41;;;-0.55;61.30
64158;BME280;50449;51.528;5.076;2022-12-18T05:28:40;102591.75;;;-0.55;61.38
64158;BME280;50449;51.528;5.076;2022-12-18T05:31:05;102593.56;;;-0.56;61.38
64158;BME280;50449;51.528;5.076;2022-12-18T05:33:32;102593.69;;;-0.57;61.41
64158;BME280;50449;51.528;5.076;2022-12-18T05:35:58;102597.28;;;-0.58;61.53
64158;BME280;50449;51.528;5.076;2022-12-18T05:38:24;102598.28;;;-0.59;61.44
64158;BME280;50449;51.528;5.076;2022-12-18T05:40:50;102594.91;;;-0.61;61.57
64158;BME280;50449;51.528;5.076;2022-12-18T05:43:16;102588.75;;;-0.62;61.56
64158;BME280;50449;51.528;5.076;2022-12-18T05:45:41;102585.38;;;-0.64;61.48
64158;BME280;50449;51.528;5.076;2022-12-18T05:48:07;102572.25;;;-0.66;61.37
64158;BME280;50449;51.528;5.076;2022-12-18T05:50:36;102577.56;;;-0.66;61.35
64158;BME280;50449;51.528;5.076;2022-12-18T05:53:02;102585.63;;;-0.67;61.51
64158;BME280;50449;51.528;5.076;2022-12-18T05:55:27;102589.22;;;-0.68;61.18
64158;BME280;50449;51.528;5.076;2022-12-18T05:57:53;102583.09;;;-0.69;61.18
64158;BME280;50449;51.528;5.076;2022-12-18T06:00:18;102584.06;;;-0.70;61.35
64158;BME280;50449;51.528;5.076;2022-12-18T06:02:46;102589.47;;;-0.71;61.34
64158;BME280;50449;51.528;5.076;2022-12-18T06:05:11;102584.31;;;-0.73;61.40
64158;BME280;50449;51.528;5.076;2022-12-18T06:07:37;102601.19;;;-0.74;61.21
64158;BME280;50449;51.528;5.076;2022-12-18T06:10:02;102581.03;;;-0.76;61.26
64158;BME280;50449;51.528;5.076;2022-12-18T06:12:27;102579.38;;;-0.77;61.31
64158;BME280;50449;51.528;5.076;2022-12-18T06:14:52;102572.25;;;-0.77;61.19
64158;BME280;50449;51.528;5.076;2022-12-18T06:17:18;102581.19;;;-0.78;61.40
64158;BME280;50449;51.528;5.076;2022-12-18T06:19:43;102586.59;;;-0.79;61.44
64158;BME280;50449;51.528;5.076;2022-12-18T06:22:08;102576.97;;;-0.80;61.60
64158;BME280;50449;51.528;5.076;2022-12-18T06:24:33;102570.78;;;-0.81;61.23
64158;BME280;50449;51.528;5.076;2022-12-18T06:26:59;102562.97;;;-0.82;61.41
64158;BME280;50449;51.528;5.076;2022-12-18T06:29:24;102569.22;;;-0.83;61.27
64158;BME280;50449;51.528;5.076;2022-12-18T06:31:49;102573.69;;;-0.84;61.18
64158;BME280;50449;51.528;5.076;2022-12-18T06:34:14;102571.19;;;-0.85;61.23
64158;BME280;50449;51.528;5.076;2022-12-18T06:36:40;102558.03;;;-0.87;61.20
64158;BME280;50449;51.528;5.076;2022-12-18T06:39:05;102544.88;;;-0.89;61.23
64158;BME280;50449;51.528;5.076;2022-12-18T06:41:30;102547.53;;;-0.89;61.14
64158;BME280;50449;51.528;5.076;2022-12-18T06:43:56;102554.78;;;-0.91;61.06
64158;BME280;50449;51.528;5.076;2022-12-18T06:46:22;102555.63;;;-0.90;61.03
64158;BME280;50449;51.528;5.076;2022-12-18T06:48:48;102552.25;;;-0.92;61.35
64158;BME280;50449;51.528;5.076;2022-12-18T06:51:17;102554.06;;;-0.93;61.17
64158;BME280;50449;51.528;5.076;2022-12-18T06:53:43;102553.22;;;-0.93;61.19
64158;BME280;50449;51.528;5.076;2022-12-18T06:56:08;102545.38;;;-0.95;61.14
64158;BME280;50449;51.528;5.076;2022-12-18T06:58:33;102549.84;;;-0.95;61.14
64158;BME280;50449;51.528;5.076;2022-12-18T07:00:59;102541.16;;;-0.97;61.26
64158;BME280;50449;51.528;5.076;2022-12-18T07:03:25;102536.84;;;-0.98;61.42
64158;BME280;50449;51.528;5.076;2022-12-18T07:05:50;102542.25;;;-1.00;61.10
64158;BME280;50449;51.528;5.076;2022-12-18T07:08:15;102546.72;;;-1.00;61.19
64158;BME280;50449;51.528;5.076;2022-12-18T07:10:41;102529.94;;;-1.01;60.95
64158;BME280;50449;51.528;5.076;2022-12-18T07:13:07;102522.97;;;-1.02;61.34
64158;BME280;50449;51.528;5.076;2022-12-18T07:15:32;102514.28;;;-1.04;61.23
64158;BME280;50449;51.528;5.076;2022-12-18T07:17:58;102507.31;;;-1.05;61.10
64158;BME280;50449;51.528;5.076;2022-12-18T07:20:23;102500.28;;;-1.06;60.88
64158;BME280;50449;51.528;5.076;2022-12-18T07:22:48;102503.94;;;-1.07;60.96
64158;BME280;50449;51.528;5.076;2022-12-18T07:25:13;102490.78;;;-1.09;61.21
64158;BME280;50449;51.528;5.076;2022-12-18T07:27:39;102489.09;;;-1.10;61.13
64158;BME280;50449;51.528;5.076;2022-12-18T07:30:04;102486.56;;;-1.11;61.05
64158;BME280;50449;51.528;5.076;2022-12-18T07:32:30;102485.72;;;-1.12;61.20
64158;BME280;50449;51.528;5.076;2022-12-18T07:34:55;102477.91;;;-1.13;61.03
64158;BME280;50449;51.528;5.076;2022-12-18T07:37:20;102471.75;;;-1.14;61.46
64158;BME280;50449;51.528;5.076;2022-12-18T07:39:46;102461.28;;;-1.15;61.17
64158;BME280;50449;51.528;5.076;2022-12-18T07:42:11;102467.53;;;-1.16;61.29
64158;BME280;50449;51.528;5.076;2022-12-18T07:45:08;102460.56;;;-1.17;61.29
64158;BME280;50449;51.528;5.076;2022-12-18T07:47:34;102458.88;;;-1.18;61.10
64158;BME280;50449;51.528;5.076;2022-12-18T07:50:01;102456.22;;;-1.18;61.01
64158;BME280;50449;51.528;5.076;2022-12-18T07:52:26;102462.47;;;-1.19;61.23
64158;BME280;50449;51.528;5.076;2022-12-18T07:54:51;102464.41;;;-1.21;61.07
64158;BME280;50449;51.528;5.076;2022-12-18T07:57:17;102472.34;;;-1.21;61.32
64158;BME280;50449;51.528;5.076;2022-12-18T07:59:44;102480.31;;;-1.21;61.41
64158;BME280;50449;51.528;5.076;2022-12-18T08:02:09;102469.84;;;-1.23;61.09
64158;BME280;50449;51.528;5.076;2022-12-18T08:04:35;102475.16;;;-1.23;61.02
64158;BME280;50449;51.528;5.076;2022-12-18T08:07:00;102465.63;;;-1.25;61.02
64158;BME280;50449;51.528;5.076;2022-12-18T08:09:25;102473.59;;;-1.25;60.93
64158;BME280;50449;51.528;5.076;2022-12-18T08:11:50;102478.88;;;-1.25;61.10
64158;BME280;50449;51.528;5.076;2022-12-18T08:14:16;102477.19;;;-1.26;61.22
64158;BME280;50449;51.528;5.076;2022-12-18T08:16:41;102478.16;;;-1.27;61.13
64158;BME280;50449;51.528;5.076;2022-12-18T08:19:06;102470.22;;;-1.27;61.16
64158;BME280;50449;51.528;5.076;2022-12-18T08:21:31;102468.53;;;-1.28;61.08
64158;BME280;50449;51.528;5.076;2022-12-18T08:23:58;102471.19;;;-1.28;61.05
64158;BME280;50449;51.528;5.076;2022-12-18T08:26:24;102472.13;;;-1.29;61.07
64158;BME280;50449;51.528;5.076;2022-12-18T08:28:50;102473.94;;;-1.30;61.05
64158;BME280;50449;51.528;5.076;2022-12-18T08:31:15;102476.72;;;-1.32;61.13
64158;BME280;50449;51.528;5.076;2022-12-18T08:33:41;102467.09;;;-1.33;61.15
64158;BME280;50449;51.528;5.076;2022-12-18T08:36:07;102453.81;;;-1.33;61.19
64158;BME280;50449;51.528;5.076;2022-12-18T08:38:33;102448.63;;;-1.34;61.45
64158;BME280;50449;51.528;5.076;2022-12-18T08:41:02;102444.31;;;-1.35;61.24
64158;BME280;50449;51.528;5.076;2022-12-18T08:43:28;102445.16;;;-1.35;61.32
64158;BME280;50449;51.528;5.076;2022-12-18T08:46:12;102446.13;;;-1.36;61.22
64158;BME280;50449;51.528;5.076;2022-12-18T08:48:37;102445.41;;;-1.38;61.17
64158;BME280;50449;51.528;5.076;2022-12-18T08:51:02;102456.94;;;-1.39;61.52
64158;BME280;50449;51.528;5.076;2022-12-18T08:53:28;102451.53;;;-1.37;61.27
64158;BME280;50449;51.528;5.076;2022-12-18T08:55:53;102453.34;;;-1.38;61.21
64158;BME280;50449;51.528;5.076;2022-12-18T08:58:19;102460.47;;;-1.38;61.17
64158;BME280;50449;51.528;5.076;2022-12-18T09:00:44;102464.78;;;-1.37;61.27
64158;BME280;50449;51.528;5.076;2022-12-18T09:03:16;102474.56;;;-1.38;61.26
64158;BME280;50449;51.528;5.076;2022-12-18T09:05:42;102477.31;;;-1.39;61.57
64158;BME280;50449;51.528;5.076;2022-12-18T09:08:07;102478.16;;;-1.39;61.18
64158;BME280;50449;51.528;5.076;2022-12-18T09:10:33;102471.19;;;-1.40;61.47
64158;BME280;50449;51.528;5.076;2022-12-18T09:12:58;102472.16;;;-1.41;61.39
64158;BME280;50449;51.528;5.076;2022-12-18T09:15:23;102467.69;;;-1.40;61.46
64158;BME280;50449;51.528;5.076;2022-12-18T09:17:49;102453.59;;;-1.41;61.31
64158;BME280;50449;51.528;5.076;2022-12-18T09:20:15;102447.44;;;-1.41;61.30
64158;BME280;50449;51.528;5.076;2022-12-18T09:22:40;102444.78;;;-1.41;61.67
64158;BME280;50449;51.528;5.076;2022-12-18T09:25:05;102451.06;;;-1.42;61.59
64158;BME280;50449;51.528;5.076;2022-12-18T09:27:34;102465.16;;;-1.42;61.48
64158;BME280;50449;51.528;5.076;2022-12-18T09:30:00;102448.31;;;-1.41;61.64
64158;BME280;50449;51.528;5.076;2022-12-18T09:32:25;102443.84;;;-1.40;61.78
64158;BME280;50449;51.528;5.076;2022-12-18T09:34:50;102428.03;;;-1.42;61.44
64158;BME280;50449;51.528;5.076;2022-12-18T09:37:16;102434.19;;;-1.41;61.63
64158;BME280;50449;51.528;5.076;2022-12-18T09:39:41;102434.19;;;-1.41;61.43
64158;BME280;50449;51.528;5.076;2022-12-18T09:42:06;102435.16;;;-1.42;61.84
64158;BME280;50449;51.528;5.076;2022-12-18T09:44:36;102437.81;;;-1.42;61.63
64158;BME280;50449;51.528;5.076;2022-12-18T09:49:33;102424.56;;;-1.42;61.89
64158;BME280;50449;51.528;5.076;2022-12-18T09:54:26;102432.50;;;-1.42;61.54
64158;BME280;50449;51.528;5.076;2022-12-18T09:56:56;102435.16;;;-1.42;61.77
64158;BME280;50449;51.528;5.076;2022-12-18T09:59:25;102439.63;;;-1.43;61.57
64158;BME280;50449;51.528;5.076;2022-12-18T10:01:51;102436.00;;;-1.42;61.81
64158;BME280;50449;51.528;5.076;2022-12-18T10:04:17;102433.34;;;-1.42;61.59
64158;BME280;50449;51.528;5.076;2022-12-18T10:06:53;102423.59;;;-1.41;61.68
64158;BME280;50449;51.528;5.076;2022-12-18T10:11:49;102431.53;;;-1.41;61.83
64158;BME280;50449;51.528;5.076;2022-12-18T10:19:51;102423.47;;;-1.40;61.67
64158;BME280;50449;51.528;5.076;2022-12-18T10:27:30;102389.84;;;-1.39;62.00
64158;BME280;50449;51.528;5.076;2022-12-18T10:29:57;102384.53;;;-1.39;61.84
64158;BME280;50449;51.528;5.076;2022-12-18T10:32:27;102375.75;;;-1.40;61.96
64158;BME280;50449;51.528;5.076;2022-12-18T10:34:53;102362.63;;;-1.41;61.89
64158;BME280;50449;51.528;5.076;2022-12-18T10:37:20;102366.81;;;-1.39;62.08
64158;BME280;50449;51.528;5.076;2022-12-18T10:39:46;102367.69;;;-1.38;62.08
64158;BME280;50449;51.528;5.076;2022-12-18T10:42:17;102365.88;;;-1.38;61.95
64158;BME280;50449;51.528;5.076;2022-12-18T10:44:43;102362.25;;;-1.37;62.06
64158;BME280;50449;51.528;5.076;2022-12-18T10:47:11;102364.91;;;-1.37;62.08
64158;BME280;50449;51.528;5.076;2022-12-18T10:49:37;102354.28;;;-1.37;62.13
64158;BME280;50449;51.528;5.076;2022-12-18T10:54:30;102356.00;;;-1.36;61.86
64158;BME280;50449;51.528;5.076;2022-12-18T10:59:53;102356.69;;;-1.34;61.90
64158;BME280;50449;51.528;5.076;2022-12-18T11:04:51;102355.75;;;-1.33;62.04
64158;BME280;50449;51.528;5.076;2022-12-18T11:07:16;102354.75;;;-1.32;62.09
64158;BME280;50449;51.528;5.076;2022-12-18T11:09:42;102353.09;;;-1.33;62.28
64158;BME280;50449;51.528;5.076;2022-12-18T11:17:00;102335.00;;;-1.27;62.28
64158;BME280;50449;51.528;5.076;2022-12-18T11:21:57;102327.78;;;-1.25;62.08
64158;BME280;50449;51.528;5.076;2022-12-18T11:26:54;102339.09;;;-1.23;62.26
64158;BME280;50449;51.528;5.076;2022-12-18T11:29:24;102338.13;;;-1.22;62.38
64158;BME280;50449;51.528;5.076;2022-12-18T11:31:52;102333.66;;;-1.22;62.19
64158;BME280;50449;51.528;5.076;2022-12-18T11:34:37;102331.00;;;-1.22;62.41
64158;BME280;50449;51.528;5.076;2022-12-18T11:37:02;102329.19;;;-1.21;62.58
64158;BME280;50449;51.528;5.076;2022-12-18T11:39:42;102323.88;;;-1.21;62.38
64158;BME280;50449;51.528;5.076;2022-12-18T11:42:24;102327.25;;;-1.19;62.33
64158;BME280;50449;51.528;5.076;2022-12-18T11:47:39;102315.56;;;-1.17;62.51
64158;BME280;50449;51.528;5.076;2022-12-18T11:50:14;102311.94;;;-1.16;62.27
64158;BME280;50449;51.528;5.076;2022-12-18T11:52:41;102302.19;;;-1.15;62.36
64158;BME280;50449;51.528;5.076;2022-12-18T11:55:14;102299.38;;;-1.14;62.34
64158;BME280;50449;51.528;5.076;2022-12-18T12:00:12;102290.31;;;-1.11;62.29
64158;BME280;50449;51.528;5.076;2022-12-18T12:15:48;102267.78;;;-1.05;62.44
64158;BME280;50449;51.528;5.076;2022-12-18T12:26:27;102248.94;;;-1.02;62.62
64158;BME280;50449;51.528;5.076;2022-12-18T12:29:06;102239.19;;;-1.02;62.71
64158;BME280;50449;51.528;5.076;2022-12-18T12:31:46;102244.34;;;-1.00;62.62
64158;BME280;50449;51.528;5.076;2022-12-18T12:39:13;102234.31;;;-0.97;62.75
64158;BME280;50449;51.528;5.076;2022-12-18T12:41:41;102229.84;;;-0.96;62.86
64158;BME280;50449;51.528;5.076;2022-12-18T12:44:30;102227.91;;;-0.94;62.75
64158;BME280;50449;51.528;5.076;2022-12-18T12:46:59;102223.44;;;-0.94;62.74
64158;BME280;50449;51.528;5.076;2022-12-18T12:49:26;102221.50;;;-0.92;62.69
64158;BME280;50449;51.528;5.076;2022-12-18T12:51:55;102217.03;;;-0.91;62.68
64158;BME280;50449;51.528;5.076;2022-12-18T12:54:23;102219.56;;;-0.90;62.68
64158;BME280;50449;51.528;5.076;2022-12-18T12:59:40;102214.97;;;-0.88;62.62
64158;BME280;50449;51.528;5.076;2022-12-18T13:05:49;102210.38;;;-0.85;62.72
64158;BME280;50449;51.528;5.076;2022-12-18T13:10:31;102201.31;;;-0.83;62.91
64158;BME280;50449;51.528;5.076;2022-12-18T13:15:30;102202.88;;;-0.80;62.81
64158;BME280;50449;51.528;5.076;2022-12-18T13:18:04;102202.72;;;-0.79;62.82
64158;BME280;50449;51.528;5.076;2022-12-18T13:20:33;102204.41;;;-0.78;62.98
64158;BME280;50449;51.528;5.076;2022-12-18T13:22:59;102196.31;;;-0.76;62.69
64158;BME280;50449;51.528;5.076;2022-12-18T13:25:37;102201.50;;;-0.75;62.83
64158;BME280;50449;51.528;5.076;2022-12-18T13:28:04;102189.06;;;-0.74;62.94
64158;BME280;50449;51.528;5.076;2022-12-18T13:35:39;102193.00;;;-0.69;62.76
64158;BME280;50449;51.528;5.076;2022-12-18T13:38:21;102185.88;;;-0.68;63.07
64158;BME280;50449;51.528;5.076;2022-12-18T13:43:31;102175.97;;;-0.66;62.76
64158;BME280;50449;51.528;5.076;2022-12-18T13:48:29;102178.38;;;-0.63;63.07
64158;BME280;50449;51.528;5.076;2022-12-18T13:51:05;102176.56;;;-0.62;63.04
64158;BME280;50449;51.528;5.076;2022-12-18T13:53:33;102162.19;;;-0.60;63.16
64158;BME280;50449;51.528;5.076;2022-12-18T13:55:59;102163.00;;;-0.59;63.03
64158;BME280;50449;51.528;5.076;2022-12-18T13:58:24;102162.88;;;-0.58;62.93
64158;BME280;50449;51.528;5.076;2022-12-18T14:00:49;102167.22;;;-0.57;62.84
64158;BME280;50449;51.528;5.076;2022-12-18T14:03:22;102168.88;;;-0.56;62.99
64158;BME280;50449;51.528;5.076;2022-12-18T14:05:52;102159.13;;;-0.55;63.06
64158;BME280;50449;51.528;5.076;2022-12-18T14:08:19;102158.25;;;-0.56;63.08
64158;BME280;50449;51.528;5.076;2022-12-18T14:10:45;102163.31;;;-0.53;62.82
64158;BME280;50449;51.528;5.076;2022-12-18T14:13:15;102167.63;;;-0.52;63.25
64158;BME280;50449;51.528;5.076;2022-12-18T14:15:41;102167.53;;;-0.50;63.17
64158;BME280;50449;51.528;5.076;2022-12-18T14:18:23;102149.78;;;-0.50;63.08
64158;BME280;50449;51.528;5.076;2022-12-18T14:20:50;102147.13;;;-0.50;63.22
64158;BME280;50449;51.528;5.076;2022-12-18T14:23:29;102143.47;;;-0.49;63.19
64158;BME280;50449;51.528;5.076;2022-12-18T14:25:55;102153.13;;;-0.48;63.16
64158;BME280;50449;51.528;5.076;2022-12-18T14:28:20;102149.50;;;-0.47;63.10
64158;BME280;50449;51.528;5.076;2022-12-18T14:30:48;102156.47;;;-0.46;63.32
64158;BME280;50449;51.528;5.076;2022-12-18T14:33:15;102155.50;;;-0.45;63.18
64158;BME280;50449;51.528;5.076;2022-12-18T14:35:54;102143.06;;;-0.44;63.25
64158;BME280;50449;51.528;5.076;2022-12-18T14:38:22;102151.75;;;-0.42;63.10
64158;BME280;50449;51.528;5.076;2022-12-18T14:40:51;102154.41;;;-0.42;63.24
64158;BME280;50449;51.528;5.076;2022-12-18T14:43:16;102142.78;;;-0.41;63.28
64158;BME280;50449;51.528;5.076;2022-12-18T14:45:42;102153.28;;;-0.39;63.26